Cairns AAF (Fort Rucker) Air Field
KOZR : now visible

Airfield :











YOU CAN JOIN US ON...

 
LOGIN :

Register | Disclaimer

   EN    FR    IT 

 









Legend :    VFR   Marginal VFR   IFR   Intensive IFR   Very Intensive IFR
Visi :
Ceiling :
>= 8 km
>= 3000ft
5 to 8 km
1000 to 3000 ft
1500m to 5 km
500 to 1000 ft
800 to 1500m
200 to 500 ft
< 800m
< 200 ft
Symbols :   Thunderstorms  Fog  Heavy snow  Heavy precipitations  Wind > 20 kt






- Airport Elevation : 301 ft


KOZR - Cairns AAF (Fort Rucker) Air Field

CURRENT METAR :
  • 010225Z AUTO 31009KT 10SM CLR 04/M03 A3011 RMK AO2 SLP200 52037

EXPIRED METARs :
  • 010156Z AUTO 31012G21KT 10SM CLR 04/M03 A3009 RMK AO2 SLP193 T00421031
  • 010115Z AUTO 31008KT 10SM FEW034 05/00 A3007 RMK AO2 PRESRR SLP186
  • 010056Z AUTO 31007KT 10SM SCT041 05/00 A3005 RMK AO2 SLP179 T00520002
  • 010044Z AUTO 31006KT 10SM BKN043 BKN060 06/00 A3005 RMK AO2 SLP179
  • 010014Z AUTO 31006KT 10SM SCT055 06/M00 A3003 RMK AO2 PRESRR SLP172
  • 302356Z AUTO 30009KT 10SM OVC055 07/M00 A3001 RMK AO2 SLP166 T00661002 10100 20065 52021
  • 302337Z AUTO 30008G15KT 10SM OVC050 07/M00 A3001 RMK AO2 SLP166 52019

TAF TAF KOZR
Valid from the 01 at 02:00 until the 02 at 08:00 UTC


010200Z 0102/0208 30012G18KT 9999 SCT040 620403 510009 QNH3007INS
TEMPO 0102/0104 30015G25KT BKN040
BECMG 0104/0105 29010G15KT 9999 FEW050 QNH3014INS
TEMPO 0105/0108 30012G20KT
BECMG 0114/0115 29009KT 9999 SKC QNH3020INS
TEMPO 0115/0120 31015G20KT TX10/0119Z TNM01/0112Z
KZJX FIR / North America



MET'MAP, your aeronautical weather chart ! - Copyright ORBIFLY December 2007 - Disclaimer

ORBIFLY MET'MAP TEAM :

Programming & Development : Alexandra Zaïnal
Concept & original design : Baudouin d'Aumeries
Assistance for programming : Marc-Olivier Méhu
Technical & hardware support : Manuel Goepfert

Contact : metmap@orbifly.com




SOURCES & CREDITS :

   NOAA       Earth
Advisory